• Join FlightAware (Why Join?)
  • Login
  • US Flag 
04:23AM EDT


 

Airport Tracker/Info


-or-


 

Live Flight TrackerFlight Track Log ✈ UAL252 ✈ 22-Jun-2013 ✈ KDCA - KIAH

Flight Track Log - Related Links

Times and Time Zones

All times are in EDT time to prevent confusion due to time zone crossing. See the UAL252 flight status page for this flight to view local times or setup timezone preferences in your user account.

Time Position Orientation Groundspeed Altitude Reporting Facility
EDT Latitude Longitude Course Direction KTS MPH feet Rate Location/Type
08:06AM 38.8067 -77.0328 237° Southwest 159 183 1,700  Level Washington Center
08:07AM 38.7667 -77.0333 181° South 214 246 4,100 2,340 Climbing Potomac TRACON
08:08AM 38.6679 -77.3771 234° Southwest  Level FlightAware Approximate
08:08AM 38.7500 -77.1167 256° West 283 326 6,400  Level Potomac TRACON
08:09AM 38.6077 -77.4936 247° West  Level FlightAware Approximate
08:09AM 38.7333 -77.2167 258° West 289 333 9,900  Level Potomac TRACON
08:10AM 38.5578 -77.6177 237° Southwest  Level FlightAware Approximate
08:10AM 38.6833 -77.3167 237° Southwest 323 372 12,000  Level Potomac TRACON
08:11AM 38.4931 -77.7305 237° Southwest  Level FlightAware Approximate
08:11AM 38.6500 -77.4333 250° West 350 403 14,600  Level Potomac TRACON
08:12AM 38.5892 -77.5411 234° Southwest 347 399 16,700 1,800 Climbing Washington Center
08:13AM 38.5392 -77.6567 241° Southwest 360 414 18,300 1,740 Climbing Washington Center
08:14AM 38.4786 -77.7797 238° Southwest 388 447 20,300 1,860 Climbing Washington Center
08:15AM 38.4158 -77.8997 236° Southwest 405 466 22,100 1,500 Climbing Washington Center
08:16AM 38.3572 -78.0144 237° Southwest 415 478 23,300 1,380 Climbing Washington Center
08:17AM 38.2900 -78.1419 236° Southwest 436 502 24,900 1,500 Climbing Washington Center
08:18AM 38.2206 -78.2742 236° Southwest 441 507 26,300 1,260 Climbing Washington Center
08:19AM 38.1506 -78.4092 237° Southwest 447 514 27,500 1,260 Climbing Washington Center
08:20AM 38.0931 -78.5522 243° Southwest 459 528 28,900 1,500 Climbing Washington Center
08:21AM 38.0433 -78.7031 247° West 459 528 30,500 1,560 Climbing Washington Center
08:22AM 37.9847 -78.8692 246° West 464 534 32,100 1,320 Climbing Washington Center
08:23AM 37.9347 -79.0172 247° West 469 540 33,200 1,200 Climbing Washington Center
08:24AM 37.8781 -79.1644 244° Southwest 474 545 34,500 1,260 Climbing Washington Center
08:25AM 37.8139 -79.2878 237° Southwest 469 540 35,700 720 Climbing Washington Center
08:26AM 37.7492 -79.4264 239° Southwest 469 540 36,000 120 Climbing Washington Center
08:27AM 37.6692 -79.5744 236° Southwest 469 540 36,000  Level Washington Center
08:28AM 37.6019 -79.7125 238° Southwest 469 540 36,000  Level Washington Center
08:30AM 37.4769 -79.9544 237° Southwest 490 564 36,000  Level Atlanta Center
08:31AM 37.4083 -80.0886 237° Southwest 480 552 36,000  Level Atlanta Center
08:32AM 37.3317 -80.2336 236° Southwest 469 540 36,000  Level Atlanta Center
08:33AM 37.2650 -80.3697 238° Southwest 469 540 36,000  Level Atlanta Center
08:34AM 37.1939 -80.5033 236° Southwest 469 540 36,000  Level Atlanta Center
08:35AM 37.1247 -80.6367 237° Southwest 469 540 36,000  Level Atlanta Center
08:36AM 37.0697 -80.7586 241° Southwest 469 540 36,000  Level Atlanta Center
08:37AM 37.0150 -80.9039 245° Southwest 457 526 36,000  Level Atlanta Center
08:38AM 36.9644 -81.0461 246° West 457 526 36,000  Level Atlanta Center
08:39AM 36.9136 -81.1933 247° West 457 526 36,000  Level Atlanta Center
08:40AM 36.8547 -81.3511 245° Southwest 457 526 36,000  Level Atlanta Center
08:41AM 36.8036 -81.4981 247° West 462 532 36,000  Level Atlanta Center
08:42AM 36.7564 -81.6422 248° West 452 520 36,000  Level Atlanta Center
08:43AM 36.7008 -81.7861 244° Southwest 458 527 36,000  Level Atlanta Center
08:44AM 36.6469 -81.9300 245° Southwest 464 534 36,000  Level Atlanta Center
08:45AM 36.5953 -82.0761 246° West 464 534 36,000  Level Atlanta Center
08:46AM 36.5433 -82.2194 246° West 464 534 36,000  Level Atlanta Center
08:47AM 36.4869 -82.3628 244° Southwest 464 534 36,000  Level Atlanta Center
08:48AM 36.4344 -82.5033 245° Southwest 458 527 36,000  Level Atlanta Center
08:49AM 36.3778 -82.6489 244° Southwest 463 533 36,000  Level Atlanta Center
08:50AM 36.3231 -82.7942 245° Southwest 463 533 36,100  Climbing Atlanta Center
08:51AM 36.2703 -82.9392 246° West 463 533 36,000 -60 Descending Atlanta Center
08:52AM 36.2214 -83.0658 244° Southwest 456 525 36,000  Level Atlanta Center
08:53AM 36.1661 -83.2131 245° Southwest 462 532 36,000  Level Atlanta Center
08:54AM 36.1106 -83.3578 245° Southwest 467 537 36,000  Level Atlanta Center
08:55AM 36.0550 -83.5019 245° Southwest 460 529 36,000  Level Atlanta Center
08:56AM 36.0033 -83.6436 246° West 460 529 36,000  Level Atlanta Center
08:57AM 35.9453 -83.7900 244° Southwest 465 535 36,000  Level Atlanta Center
08:58AM 35.8808 -83.9261 240° Southwest 465 535 36,000  Level Atlanta Center
08:59AM 35.7956 -84.0489 229° Southwest 470 541 36,000  Level Atlanta Center
09:00AM 35.7097 -84.1667 228° Southwest 470 541 36,000  Level Atlanta Center
09:01AM 35.6242 -84.2839 228° Southwest 470 541 36,000  Level Atlanta Center
09:02AM 35.5406 -84.4011 229° Southwest 465 535 36,000  Level Atlanta Center
09:03AM 35.4544 -84.5206 229° Southwest 465 535 36,000  Level Atlanta Center
09:04AM 35.3683 -84.6397 228° Southwest 465 535 36,000  Level Atlanta Center
09:05AM 35.2739 -84.7689 228° Southwest 465 535 36,000  Level Atlanta Center
09:06AM 35.1875 -84.8900 229° Southwest 465 535 36,000  Level Atlanta Center
09:07AM 35.0989 -85.0111 228° Southwest 465 535 36,000  Level Atlanta Center
09:08AM 35.0125 -85.1267 228° Southwest 465 535 36,000  Level Atlanta Center
09:09AM 34.9258 -85.2447 228° Southwest 465 535 36,000  Level Atlanta Center
09:10AM 34.8369 -85.3622 227° Southwest 470 541 36,000  Level Atlanta Center
09:11AM 34.7500 -85.4797 228° Southwest 470 541 36,000  Level Atlanta Center
09:12AM 34.6608 -85.5994 228° Southwest 470 541 36,000  Level Atlanta Center
09:13AM 34.5758 -85.7164 229° Southwest 470 541 36,000  Level Atlanta Center
09:14AM 34.4972 -85.8158 226° Southwest 461 531 36,000  Level Atlanta Center
09:15AM 34.4014 -85.9422 227° Southwest 461 531 36,000  Level Atlanta Center
09:16AM 34.3142 -86.0558 227° Southwest 466 536 36,000  Level Atlanta Center
09:17AM 34.2267 -86.1744 228° Southwest 466 536 36,000  Level Atlanta Center
09:18AM 34.1389 -86.2875 227° Southwest 466 536 36,100  Climbing Atlanta Center
09:19AM 34.0514 -86.4031 228° Southwest 466 536 36,000 -60 Descending Atlanta Center
09:20AM 33.9633 -86.5183 227° Southwest 466 536 36,000  Level Atlanta Center
09:21AM 33.8756 -86.6283 226° Southwest 466 536 36,000  Level Atlanta Center
09:22AM 33.7853 -86.7456 227° Southwest 466 536 36,000  Level Atlanta Center
09:23AM 33.6992 -86.8628 229° Southwest 466 536 36,000  Level Atlanta Center
09:24AM 33.6336 -86.9928 239° Southwest 466 536 36,000  Level Atlanta Center
09:25AM 33.5883 -87.1333 249° West 449 517 36,000  Level Atlanta Center
09:26AM 33.5411 -87.2714 248° West 454 522 36,000  Level Atlanta Center
09:30AM 33.3497 -87.8281 248° West 454 522 36,000  Level Memphis Center
09:31AM 33.3022 -87.9636 247° West 454 522 36,000  Level Memphis Center
09:32AM 33.2547 -88.0992 247° West 454 522 36,000  Level Memphis Center
09:33AM 33.2092 -88.2369 248° West 449 517 36,000  Level Memphis Center
09:34AM 33.1611 -88.3719 247° West 449 517 36,000  Level Memphis Center
09:35AM 33.1153 -88.5094 248° West 449 517 36,000  Level Memphis Center
09:36AM 33.0650 -88.6444 246° West 444 511 36,000  Level Memphis Center
09:37AM 33.0167 -88.7792 247° West 444 511 36,000  Level Memphis Center
09:38AM 32.9683 -88.9161 247° West 444 511 36,000  Level Memphis Center
09:39AM 32.9156 -89.0506 245° Southwest 444 511 36,000  Level Memphis Center
09:40AM 32.8564 -89.1800 241° Southwest 444 511 36,000  Level Memphis Center
09:41AM 32.7969 -89.3069 241° Southwest 449 517 36,000  Level Memphis Center
09:42AM 32.7372 -89.4361 241° Southwest 449 517 36,000  Level Memphis Center
09:43AM 32.6756 -89.5625 240° Southwest 449 517 36,000  Level Memphis Center
09:44AM 32.6181 -89.6914 242° Southwest 444 511 36,000  Level Memphis Center
09:45AM 32.5539 -89.8200 239° Southwest 444 511 36,000  Level Memphis Center
09:46AM 32.4958 -89.9483 242° Southwest 444 511 36,000  Level Memphis Center
09:47AM 32.4356 -90.0767 241° Southwest 444 511 36,000  Level Memphis Center
09:48AM 32.3733 -90.2072 241° Southwest 444 511 36,000  Level Memphis Center
09:49AM 32.3128 -90.3353 241° Southwest 444 511 36,000  Level Memphis Center
09:50AM 32.2544 -90.4631 242° Southwest 444 511 36,000  Level Memphis Center
09:51AM 32.1936 -90.5906 241° Southwest 444 511 36,000 -120 Level Memphis Center
09:51AM 32.1608 -90.6586 240° Southwest 445 512 35,900 -120 Descending Houston Center
09:52AM 32.1017 -90.7850 241° Southwest 442 509 35,900  Level Houston Center
09:53AM 32.0414 -90.9081 240° Southwest 443 510 36,000  Climbing Houston Center
09:54AM 31.9808 -91.0325 240° Southwest 438 504 36,000  Level Houston Center
09:55AM 31.9203 -91.1575 240° Southwest 437 503 36,000  Level Houston Center
09:56AM 31.8608 -91.2817 241° Southwest 434 499 36,000  Level Houston Center
09:57AM 31.7875 -91.4303 240° Southwest 436 502 36,000  Level Houston Center
09:58AM 31.7244 -91.5553 239° Southwest 441 507 36,000  Level Houston Center
09:59AM 31.6631 -91.6811 240° Southwest 443 510 36,000  Level Houston Center
10:00AM 31.6008 -91.8058 240° Southwest 443 510 36,000  Level Houston Center
10:01AM 31.5397 -91.9311 240° Southwest 443 510 36,000 -60 Level Houston Center
10:02AM 31.4681 -92.0644 238° Southwest 449 517 35,900  Descending Houston Center
10:04AM 31.4014 -92.1883 238° Southwest 452 520 36,000  Climbing Houston Center
10:05AM 31.3353 -92.3103 238° Southwest 447 514 36,000 -60 Level Houston Center
10:06AM 31.2706 -92.4306 238° Southwest 437 503 35,900 -60 Descending Houston Center
10:07AM 31.2036 -92.5503 237° Southwest 442 509 35,900  Level Houston Center
10:08AM 31.1392 -92.6708 238° Southwest 439 505 36,000  Climbing Houston Center
10:09AM 31.0603 -92.8153 238° Southwest 441 507 36,000  Level Houston Center
10:10AM 30.9933 -92.9389 238° Southwest 444 511 36,000 -60 Level Houston Center
10:11AM 30.9286 -93.0556 237° Southwest 441 507 35,900 -60 Descending Houston Center
10:12AM 30.8625 -93.1764 238° Southwest 444 511 35,900  Level Houston Center
10:13AM 30.7958 -93.2981 237° Southwest 449 517 36,000 -660 Climbing Houston Center
10:14AM 30.7292 -93.4181 237° Southwest 447 514 34,600 -2,640 Descending Houston Center
10:15AM 30.6461 -93.5664 237° Southwest 462 532 30,600 -3,660 Descending Houston Center
10:16AM 30.5769 -93.6908 237° Southwest 467 537 27,200 -3,180 Descending Houston Center
10:17AM 30.5081 -93.8136 237° Southwest 463 533 24,200 -2,940 Descending Houston Center
10:18AM 30.4425 -93.9297 237° Southwest 449 517 21,500 -3,000 Descending Houston Center
10:19AM 30.3731 -94.0531 237° Southwest 432 497 18,400 -3,000 Descending Houston Center
10:20AM 30.3053 -94.1711 236° Southwest 424 488 15,400 -2,280 Descending Houston Center
10:21AM 30.2631 -94.2956 249° West 399 459 13,800 -1,320 Descending Houston Center
10:22AM 30.2308 -94.4183 253° West 393 452 12,800 -1,020 Descending Houston Center
10:23AM 30.1986 -94.5386 253° West 393 452 11,800 -900 Descending Houston Center
10:24AM 30.1667 -94.6636 254° West 388 447 11,000 -780 Descending Houston Center
10:25AM 30.1342 -94.7839 253° West 380 437 10,300 -480 Descending Houston Center
10:26AM 30.1083 -94.8886 254° West 329 379 10,100 -600 Descending Houston Center
10:27AM 30.1058 -94.9992 269° West 299 344 9,100 -900 Descending Houston Center
10:28AM 30.1050 -95.0775 269° West 288 331 8,300 -1,020 Descending Houston Center
10:29AM 30.1056 -95.1739 270° West 286 329 7,300 -780 Descending Houston Center
10:30AM 30.1069 -95.2725 271° West 282 325 6,600 -660 Descending Houston Center
10:31AM 30.1056 -95.3553 269° West 281 323 6,000 -480 Descending Houston Center
10:32AM 30.1058 -95.4492 270° West 278 320 5,800 -840 Descending Houston Center
10:33AM 30.1053 -95.5386 270° West 273 314 4,300 -1,320 Descending Houston Center
10:34AM 30.1025 -95.6236 268° West 260 299 3,200 -660 Descending Houston Center
10:35AM 30.0525 -95.6511 205° Southwest 195 224 3,000 -120 Descending Houston Center
10:36AM 30.0092 -95.6369 164° South 170 196 3,000  Level Houston Center
10:37AM 30.0061 -95.5769 93° East 186 214 3,000  Level Houston Center